Hlavní strana
METAR-TAF:

METAR-TAF

Letiště :

Čita, Rusko

zeměpisná šířka: 52-05N, zeměpisná délka: 113-29E, výška: 685 m

Aktuální stav počasí

Zpráva byla vytvořena před 16 minutami, v 23:30 UTC
vítr z různých směrů 2 kt
Teplota -4°C
Vlhkost vzduchu 80%
Tlak 1026 hPa
Viditelnost 10 km a více

METAR: UIAA 152330Z VRB01MPS 9999 NSC M04/M07 Q1026 R29/CLRD70 NOSIG RMK QFE711/0948

Čas: 08:46 (23:46 UTC)

Předpověď počasí

Zpráva byla vytvořena před 46 minutami, v 23:00 UTC
Předpověď platná od 16 v 00 UTC do 16 v 24 UTC
Severoseverovýchodní vítr 6 kt s nárazy do 16 kt
Viditelnost 10 km a více

TAF: UIAA 152300Z 1600/1624 02003G08MPS 9999 NSC

Stav a předpovědi počasí z více než 4 000 letišť (zprávy METAR a TAF).

Červené a žluté tečky na mapě představují dostupné meteorologické stanice.

Když kurzor umístíte na tečku, zobrazí se název stanice.

Pak kliknutím zobrazíte stav a předpověď počasí.

Chcete-li změnit mapu, kliknutím na zelené tlačítko se znaménkem +mapu přiblížíte, kliknutím na zelené tlačítko se znaménkem – mapu oddálíte a kliknutím na zelené šipky přejdete na sousední mapy.


METAR-TAF: